Terminal Aerodrome Forecast
Issued by NWS

Home | Current Version | Previous Version | Text Only | Print | Product List | Glossary On
Versions: 1 2 3 4 5 6 7 8 9 10 11 12 13 14 15 16 17 18 19 20 21 22 23 24 25 26 27 28 29 30 31 32 33 34 35 36 37 38 39 40 41 42 43 44 45
000
FTUS43 KMKX 260248 AAA
TAFENW
TAF AMD
KENW 260248Z 2603/2624 02010KT P6SM SCT090 BKN200
     FM260800 02007KT P6SM SCT250
     FM261800 02012KT P6SM FEW045=

USA.gov is the U.S. government's official web portal to all federal, state and local government web resources and services.